createdAt,value
2019-05-21T00:00:43.486Z,0.00
2019-05-21T00:01:43.484Z,0.00
2019-05-21T00:02:43.473Z,0.00
2019-05-21T00:03:43.467Z,0.00
2019-05-21T00:04:43.468Z,0.00
2019-05-21T00:05:43.463Z,0.00
2019-05-21T00:06:43.460Z,0.00
2019-05-21T00:07:43.454Z,0.00
2019-05-21T00:08:43.470Z,0.00
2019-05-21T00:09:43.441Z,0.00
2019-05-21T00:10:43.433Z,0.00
2019-05-21T00:11:43.424Z,0.00
2019-05-21T00:12:43.425Z,0.00
2019-05-21T00:13:43.423Z,0.00
2019-05-21T00:14:43.408Z,0.00
2019-05-21T00:15:43.404Z,0.00
2019-05-21T00:16:43.403Z,0.00
2019-05-21T00:17:43.399Z,0.00
2019-05-21T00:18:43.395Z,0.00
2019-05-21T00:19:43.388Z,0.00
2019-05-21T00:20:43.385Z,0.00
2019-05-21T00:21:43.374Z,0.00
2019-05-21T00:22:43.370Z,0.00
2019-05-21T00:23:43.363Z,0.00
2019-05-21T00:24:43.418Z,0.00
2019-05-21T00:25:43.356Z,0.00
2019-05-21T00:26:43.347Z,0.00
2019-05-21T00:27:43.345Z,0.00
2019-05-21T00:28:43.333Z,0.00
2019-05-21T00:29:43.329Z,0.00
2019-05-21T00:30:43.328Z,0.00
2019-05-21T00:31:43.321Z,0.00
2019-05-21T00:32:43.312Z,0.00
2019-05-21T00:33:43.310Z,0.00
2019-05-21T00:34:44.369Z,0.00
2019-05-21T00:35:43.297Z,0.00
2019-05-21T00:36:43.296Z,0.00
2019-05-21T00:37:43.291Z,0.00
2019-05-21T00:38:43.288Z,0.00
2019-05-21T00:39:43.278Z,0.00
2019-05-21T00:40:43.271Z,0.00
2019-05-21T00:41:43.271Z,0.00
2019-05-21T00:42:43.257Z,0.00
2019-05-21T00:43:43.253Z,0.00
2019-05-21T00:44:43.249Z,0.00
2019-05-21T00:45:43.290Z,0.00
2019-05-21T00:46:43.234Z,0.00
2019-05-21T00:47:43.229Z,0.00
2019-05-21T00:48:43.236Z,0.00
2019-05-21T00:49:43.224Z,0.00
2019-05-21T00:50:43.219Z,0.00
2019-05-21T00:51:43.213Z,0.00
2019-05-21T00:52:43.205Z,0.00
2019-05-21T00:53:43.199Z,0.00
2019-05-21T00:54:43.199Z,0.00
2019-05-21T00:55:43.186Z,0.00
2019-05-21T00:56:43.221Z,0.00
2019-05-21T00:57:43.179Z,0.00
2019-05-21T00:58:43.172Z,0.00
2019-05-21T00:59:43.169Z,0.00
2019-05-21T01:00:43.162Z,0.00
2019-05-21T01:01:43.156Z,0.00
2019-05-21T01:02:43.150Z,0.00
2019-05-21T01:03:43.541Z,0.00
2019-05-21T01:04:43.134Z,0.00
2019-05-21T01:05:43.129Z,0.00
2019-05-21T01:06:43.125Z,0.00
2019-05-21T01:07:43.127Z,0.00
2019-05-21T01:08:43.119Z,0.00
2019-05-21T01:09:43.138Z,0.00
2019-05-21T01:10:43.105Z,0.00
2019-05-21T01:11:43.101Z,0.00
2019-05-21T01:12:43.087Z,0.00
2019-05-21T01:13:43.085Z,0.00
2019-05-21T01:14:43.083Z,0.00
2019-05-21T01:15:43.073Z,0.00
2019-05-21T01:16:43.075Z,0.00
2019-05-21T01:17:43.066Z,0.00
2019-05-21T01:18:43.058Z,0.00
2019-05-21T01:19:43.052Z,0.00
2019-05-21T01:20:43.051Z,0.00
2019-05-21T01:21:43.046Z,0.00
2019-05-21T01:22:43.036Z,0.00
2019-05-21T01:23:43.028Z,0.00
2019-05-21T01:24:43.019Z,0.00
2019-05-21T01:25:43.013Z,0.00
2019-05-21T01:26:43.009Z,0.00
2019-05-21T01:27:43.001Z,0.00
2019-05-21T01:28:43.003Z,0.00
2019-05-21T01:29:42.996Z,0.00
2019-05-21T01:30:42.994Z,0.00
2019-05-21T01:31:42.986Z,0.00
2019-05-21T01:32:42.977Z,0.00
2019-05-21T01:33:42.971Z,0.00
2019-05-21T01:34:42.973Z,0.00
2019-05-21T01:35:42.962Z,0.00
2019-05-21T01:36:42.952Z,0.00
2019-05-21T01:37:42.946Z,0.00
2019-05-21T01:38:42.939Z,0.00
2019-05-21T01:39:42.936Z,0.00
2019-05-21T01:40:42.931Z,0.00
2019-05-21T01:41:42.925Z,0.00
2019-05-21T01:42:42.920Z,0.00
2019-05-21T01:43:42.912Z,0.00
2019-05-21T01:44:42.904Z,0.00
2019-05-21T01:45:42.898Z,0.00
2019-05-21T01:46:42.895Z,0.00
2019-05-21T01:47:42.888Z,0.00
2019-05-21T01:48:42.897Z,0.00
2019-05-21T01:49:42.881Z,0.00
2019-05-21T01:50:42.872Z,0.00
2019-05-21T01:51:42.864Z,0.00
2019-05-21T01:52:42.865Z,0.00
2019-05-21T01:53:42.860Z,0.00
2019-05-21T01:54:42.851Z,0.00
2019-05-21T01:55:42.849Z,0.00
2019-05-21T01:56:42.831Z,0.00
2019-05-21T01:57:42.828Z,0.00
2019-05-21T01:58:42.821Z,0.00
2019-05-21T01:59:42.816Z,0.00
2019-05-21T02:00:42.814Z,0.00
2019-05-21T02:01:42.808Z,0.00
2019-05-21T02:02:42.804Z,0.00
2019-05-21T02:03:42.799Z,0.00
2019-05-21T02:04:42.789Z,0.00
2019-05-21T02:05:42.783Z,0.00
2019-05-21T02:06:42.780Z,0.00
2019-05-21T02:07:42.774Z,0.00
2019-05-21T02:08:42.841Z,0.00
2019-05-21T02:09:42.763Z,0.00
2019-05-21T02:10:42.752Z,0.00
2019-05-21T02:11:42.745Z,0.00
2019-05-21T02:12:42.743Z,0.00
2019-05-21T02:13:42.737Z,0.00
2019-05-21T02:14:42.732Z,0.00
2019-05-21T02:15:42.727Z,0.00
2019-05-21T02:16:42.717Z,0.00
2019-05-21T02:17:42.711Z,0.00
2019-05-21T02:18:42.704Z,0.00
2019-05-21T02:19:42.697Z,0.00
2019-05-21T02:20:42.696Z,0.00
2019-05-21T02:21:42.688Z,0.00
2019-05-21T02:22:42.679Z,0.00
2019-05-21T02:23:42.673Z,0.00
2019-05-21T02:24:42.672Z,0.00
2019-05-21T02:25:42.666Z,0.00
2019-05-21T02:26:42.663Z,0.00
2019-05-21T02:27:42.654Z,0.00
2019-05-21T02:28:42.650Z,0.00
2019-05-21T02:29:42.640Z,0.00
2019-05-21T02:30:42.636Z,0.00
2019-05-21T02:31:42.631Z,0.00
2019-05-21T02:32:42.629Z,0.00
2019-05-21T02:33:42.621Z,0.00
2019-05-21T02:34:42.616Z,0.00
2019-05-21T02:35:53.477Z,0.00
2019-05-21T02:36:42.597Z,0.00
2019-05-21T02:37:42.591Z,0.00
2019-05-21T02:38:42.592Z,0.00
2019-05-21T02:39:42.585Z,0.00
2019-05-21T02:40:42.575Z,0.00
2019-05-21T02:41:42.571Z,0.00
2019-05-21T02:42:42.565Z,0.00
2019-05-21T02:43:42.566Z,0.00
2019-05-21T02:44:42.557Z,0.00
2019-05-21T02:45:42.555Z,0.00
2019-05-21T02:46:42.548Z,0.00
2019-05-21T02:47:42.555Z,0.00
2019-05-21T02:48:42.530Z,0.00
2019-05-21T02:49:42.538Z,0.00
2019-05-21T02:50:42.518Z,0.00
2019-05-21T02:51:42.510Z,0.00
2019-05-21T02:52:42.510Z,0.00
2019-05-21T02:53:42.504Z,0.00
2019-05-21T02:54:42.539Z,0.00
2019-05-21T02:55:42.484Z,0.00
2019-05-21T02:56:42.483Z,0.00
2019-05-21T02:57:42.485Z,0.00
2019-05-21T02:58:42.488Z,0.00
2019-05-21T02:59:42.468Z,0.00
2019-05-21T03:00:42.465Z,0.00
2019-05-21T03:01:42.457Z,0.00
2019-05-21T03:02:42.447Z,0.00
2019-05-21T03:03:42.441Z,0.00
2019-05-21T03:04:42.439Z,0.00
2019-05-21T03:05:42.433Z,0.00
2019-05-21T03:06:42.427Z,0.00
2019-05-21T03:07:42.419Z,0.00
2019-05-21T03:08:42.409Z,0.00
2019-05-21T03:09:42.402Z,0.00
2019-05-21T03:10:42.401Z,0.00
2019-05-21T03:11:42.395Z,0.00
2019-05-21T03:12:42.384Z,0.00
2019-05-21T03:13:42.378Z,0.00
2019-05-21T03:14:42.387Z,0.00
2019-05-21T03:15:42.368Z,0.00
2019-05-21T03:16:42.383Z,0.00
2019-05-21T03:17:42.365Z,0.00
2019-05-21T03:18:42.353Z,0.00
2019-05-21T03:19:42.347Z,0.00
2019-05-21T03:20:42.337Z,0.00
2019-05-21T03:21:42.331Z,0.00
2019-05-21T03:22:42.331Z,4.00
2019-05-21T03:23:42.321Z,4.00
2019-05-21T03:24:42.319Z,4.00
2019-05-21T03:25:42.315Z,4.00
2019-05-21T03:26:42.304Z,4.00
2019-05-21T03:27:42.301Z,4.00
2019-05-21T03:28:42.294Z,8.00
2019-05-21T03:29:42.292Z,8.00
2019-05-21T03:30:42.296Z,8.00
2019-05-21T03:31:42.276Z,4.00
2019-05-21T03:32:42.290Z,8.00
2019-05-21T03:33:42.260Z,8.00
2019-05-21T03:34:42.261Z,8.00
2019-05-21T03:35:42.247Z,8.00
2019-05-21T03:36:42.246Z,8.00
2019-05-21T03:37:42.238Z,12.00
2019-05-21T03:38:42.237Z,8.00
2019-05-21T03:39:42.292Z,12.00
2019-05-21T03:40:42.219Z,8.00
2019-05-21T03:41:42.217Z,12.00
2019-05-21T03:42:42.214Z,12.00
2019-05-21T03:43:42.211Z,12.00
2019-05-21T03:44:58.280Z,16.00
2019-05-21T03:45:42.191Z,16.00
2019-05-21T03:46:42.182Z,16.00
2019-05-21T03:47:42.176Z,16.00
2019-05-21T03:48:42.193Z,20.00
2019-05-21T03:49:42.169Z,20.00
2019-05-21T03:50:42.165Z,24.00
2019-05-21T03:51:42.158Z,24.00
2019-05-21T03:52:42.152Z,28.00
2019-05-21T03:53:42.139Z,28.00
2019-05-21T03:54:42.142Z,32.00
2019-05-21T03:55:42.134Z,36.00
2019-05-21T03:56:42.127Z,36.00
2019-05-21T03:57:42.122Z,36.00
2019-05-21T03:58:42.117Z,44.00
2019-05-21T03:59:42.104Z,48.00
2019-05-21T04:00:42.106Z,52.00
2019-05-21T04:01:42.098Z,52.00
2019-05-21T04:02:42.089Z,56.00
2019-05-21T04:03:42.087Z,60.00
2019-05-21T04:04:42.074Z,68.00
2019-05-21T04:05:42.067Z,68.00
2019-05-21T04:06:51.665Z,68.00
2019-05-21T04:07:42.057Z,72.00
2019-05-21T04:08:42.064Z,72.00
2019-05-21T04:09:42.058Z,84.00
2019-05-21T04:10:42.045Z,84.00
2019-05-21T04:11:42.036Z,88.00
2019-05-21T04:12:42.037Z,100.00
2019-05-21T04:13:42.022Z,92.00
2019-05-21T04:14:42.018Z,88.00
2019-05-21T04:15:42.026Z,96.00
2019-05-21T04:16:42.004Z,96.00
2019-05-21T04:17:42.007Z,100.00
2019-05-21T04:18:41.989Z,108.00
2019-05-21T04:19:41.986Z,112.00
2019-05-21T04:20:42.001Z,112.00
2019-05-21T04:21:41.975Z,132.00
2019-05-21T04:22:41.973Z,116.00
2019-05-21T04:23:41.966Z,108.00
2019-05-21T04:24:41.958Z,128.00
2019-05-21T04:25:41.952Z,116.00
2019-05-21T04:26:41.943Z,116.00
2019-05-21T04:27:41.936Z,104.00
2019-05-21T04:28:41.954Z,104.00
2019-05-21T04:29:41.932Z,108.00
2019-05-21T04:30:41.920Z,136.00
2019-05-21T04:31:41.910Z,160.00
2019-05-21T04:32:41.919Z,184.00
2019-05-21T04:33:41.905Z,164.00
2019-05-21T04:34:41.900Z,152.00
2019-05-21T04:35:41.894Z,164.00
2019-05-21T04:36:41.885Z,160.00
2019-05-21T04:37:41.880Z,184.00
2019-05-21T04:38:41.878Z,188.00
2019-05-21T04:39:41.875Z,180.00
2019-05-21T04:40:41.866Z,188.00
2019-05-21T04:41:41.861Z,196.00
2019-05-21T04:42:41.854Z,216.00
2019-05-21T04:43:41.846Z,220.00
2019-05-21T04:44:41.839Z,244.00
2019-05-21T04:45:41.830Z,228.00
2019-05-21T04:46:41.828Z,240.00
2019-05-21T04:47:41.824Z,276.00
2019-05-21T04:48:41.813Z,260.00
2019-05-21T04:49:41.807Z,272.00
2019-05-21T04:50:41.807Z,272.00
2019-05-21T04:51:41.797Z,260.00
2019-05-21T04:52:41.796Z,260.00
2019-05-21T04:53:41.789Z,292.00
2019-05-21T04:54:41.785Z,300.00
2019-05-21T04:55:41.786Z,272.00
2019-05-21T04:56:41.767Z,304.00
2019-05-21T04:57:41.763Z,384.00
2019-05-21T04:58:41.753Z,344.00
2019-05-21T04:59:41.747Z,324.00
2019-05-21T05:00:41.759Z,316.00
2019-05-21T05:01:41.741Z,324.00
2019-05-21T05:02:41.732Z,348.00
2019-05-21T05:03:41.725Z,380.00
2019-05-21T05:04:41.724Z,392.00
2019-05-21T05:05:41.719Z,376.00
2019-05-21T05:06:41.714Z,424.00
2019-05-21T05:07:41.719Z,392.00
2019-05-21T05:08:41.698Z,368.00
2019-05-21T05:09:41.693Z,388.00
2019-05-21T05:10:41.689Z,428.00
2019-05-21T05:11:41.682Z,340.00
2019-05-21T05:12:41.681Z,360.00
2019-05-21T05:13:41.674Z,404.00
2019-05-21T05:14:41.666Z,356.00
2019-05-21T05:15:41.661Z,392.00
2019-05-21T05:16:41.648Z,360.00
2019-05-21T05:17:41.651Z,424.00
2019-05-21T05:18:41.645Z,444.00
2019-05-21T05:19:41.638Z,448.00
2019-05-21T05:20:41.628Z,436.00
2019-05-21T05:21:41.621Z,384.00
2019-05-21T05:22:41.639Z,408.00
2019-05-21T05:23:41.613Z,432.00
2019-05-21T05:24:41.610Z,468.00
2019-05-21T05:25:41.606Z,496.00
2019-05-21T05:26:41.602Z,528.00
2019-05-21T05:27:41.590Z,568.00
2019-05-21T05:28:41.581Z,616.00
2019-05-21T05:29:41.578Z,644.00
2019-05-21T05:30:41.575Z,472.00
2019-05-21T05:31:41.570Z,492.00
2019-05-21T05:32:41.564Z,528.00
2019-05-21T05:33:41.559Z,608.00
2019-05-21T05:34:41.549Z,556.00
2019-05-21T05:35:41.543Z,508.00
2019-05-21T05:36:41.542Z,536.00
2019-05-21T05:37:45.160Z,604.00
2019-05-21T05:38:41.531Z,592.00
2019-05-21T05:39:41.520Z,620.00
2019-05-21T05:40:41.510Z,612.00
2019-05-21T05:41:41.507Z,592.00
2019-05-21T05:42:41.507Z,636.00
2019-05-21T05:43:41.496Z,572.00
2019-05-21T05:44:41.494Z,584.00
2019-05-21T05:45:41.489Z,640.00
2019-05-21T05:46:41.483Z,588.00
2019-05-21T05:47:41.477Z,576.00
2019-05-21T05:48:41.469Z,612.00
2019-05-21T05:49:41.462Z,780.00
2019-05-21T05:50:41.464Z,732.00
2019-05-21T05:51:41.459Z,608.00
2019-05-21T05:52:41.446Z,600.00
2019-05-21T05:53:41.439Z,604.00
2019-05-21T05:54:41.430Z,620.00
2019-05-21T05:55:41.425Z,692.00
2019-05-21T05:56:41.447Z,824.00
2019-05-21T05:57:41.449Z,720.00
2019-05-21T05:58:41.412Z,692.00
2019-05-21T05:59:41.406Z,632.00
2019-05-21T06:00:41.394Z,740.00
2019-05-21T06:01:41.392Z,776.00
2019-05-21T06:02:41.387Z,768.00
2019-05-21T06:03:41.380Z,820.00
2019-05-21T06:04:41.379Z,756.00
2019-05-21T06:05:41.374Z,816.00
2019-05-21T06:06:41.424Z,848.00
2019-05-21T06:07:41.360Z,792.00
2019-05-21T06:08:41.355Z,876.00
2019-05-21T06:09:41.352Z,944.00
2019-05-21T06:10:41.344Z,880.00
2019-05-21T06:11:41.338Z,1004.00
2019-05-21T06:12:41.369Z,1088.00
2019-05-21T06:13:41.322Z,1248.00
2019-05-21T06:14:41.320Z,1092.00
2019-05-21T06:15:41.311Z,1084.00
2019-05-21T06:16:41.308Z,1264.00
2019-05-21T06:17:41.307Z,1292.00
2019-05-21T06:18:41.300Z,1440.00
2019-05-21T06:19:41.293Z,1696.00
2019-05-21T06:20:41.289Z,1492.00
2019-05-21T06:21:41.280Z,2012.00
2019-05-21T06:22:41.278Z,1804.00
2019-05-21T06:23:41.269Z,1444.00
2019-05-21T06:24:41.262Z,1616.00
2019-05-21T06:25:41.255Z,1744.00
2019-05-21T06:26:41.246Z,1580.00
2019-05-21T06:27:41.241Z,1712.00
2019-05-21T06:28:41.240Z,1388.00
2019-05-21T06:29:41.236Z,1440.00
2019-05-21T06:30:41.229Z,1932.00
2019-05-21T06:31:41.230Z,1800.00
2019-05-21T06:32:41.216Z,1568.00
2019-05-21T06:33:41.208Z,1828.00
2019-05-21T06:34:41.209Z,2452.00
2019-05-21T06:35:41.201Z,1612.00
2019-05-21T06:36:41.196Z,1700.00
2019-05-21T06:37:41.194Z,1584.00
2019-05-21T06:38:41.184Z,1372.00
2019-05-21T06:39:41.177Z,1340.00
2019-05-21T06:40:41.177Z,1460.00
2019-05-21T06:41:41.169Z,1316.00
2019-05-21T06:42:41.165Z,1240.00
2019-05-21T06:43:41.159Z,1244.00
2019-05-21T06:44:41.147Z,1280.00
2019-05-21T06:45:41.143Z,1428.00
2019-05-21T06:46:41.137Z,1408.00
2019-05-21T06:47:41.131Z,1320.00
2019-05-21T06:48:41.146Z,1600.00
2019-05-21T06:49:41.127Z,1656.00
2019-05-21T06:50:41.122Z,1688.00
2019-05-21T06:51:41.116Z,1756.00
2019-05-21T06:52:41.147Z,1864.00
2019-05-21T06:53:41.102Z,1908.00
2019-05-21T06:54:41.099Z,1904.00
2019-05-21T06:55:41.097Z,2008.00
2019-05-21T06:56:41.086Z,1812.00
2019-05-21T06:57:41.092Z,2232.00
2019-05-21T06:58:41.073Z,2288.00
2019-05-21T06:59:41.065Z,1816.00
2019-05-21T07:00:41.069Z,1516.00
2019-05-21T07:01:41.097Z,1108.00
2019-05-21T07:02:41.054Z,1248.00
2019-05-21T07:03:41.052Z,1004.00
2019-05-21T07:04:41.039Z,1084.00
2019-05-21T07:05:57.628Z,1080.00
2019-05-21T07:06:42.935Z,1424.00
2019-05-21T07:07:41.028Z,1276.00
2019-05-21T07:08:41.027Z,1036.00
2019-05-21T07:09:41.024Z,1020.00
2019-05-21T07:10:41.012Z,964.00
2019-05-21T07:11:41.005Z,1180.00
2019-05-21T07:12:41.003Z,960.00
2019-05-21T07:13:40.996Z,1072.00
2019-05-21T07:14:40.990Z,1300.00
2019-05-21T07:15:40.984Z,1252.00
2019-05-21T07:16:40.977Z,1288.00
2019-05-21T07:17:40.970Z,1344.00
2019-05-21T07:18:41.623Z,1344.00
2019-05-21T07:19:40.957Z,1344.00
2019-05-21T07:20:40.960Z,1420.00
2019-05-21T07:21:40.954Z,1448.00
2019-05-21T07:22:40.993Z,1476.00
2019-05-21T07:23:40.944Z,1612.00
2019-05-21T07:24:40.934Z,1732.00
2019-05-21T07:25:40.930Z,1600.00
2019-05-21T07:26:40.928Z,1568.00
2019-05-21T07:27:40.922Z,1608.00
2019-05-21T07:28:40.916Z,1716.00
2019-05-21T07:29:40.907Z,1704.00
2019-05-21T07:30:40.900Z,1692.00
2019-05-21T07:31:40.894Z,1580.00
2019-05-21T07:32:40.922Z,1832.00
2019-05-21T07:33:40.889Z,1892.00
2019-05-21T07:34:40.889Z,2056.00
2019-05-21T07:35:40.879Z,2288.00
2019-05-21T07:36:40.873Z,1880.00
2019-05-21T07:37:40.866Z,1880.00
2019-05-21T07:38:52.883Z,1852.00
2019-05-21T07:39:40.851Z,1860.00
2019-05-21T07:40:40.850Z,2132.00
2019-05-21T07:41:40.844Z,2220.00
2019-05-21T07:42:40.837Z,2740.00
2019-05-21T07:43:40.833Z,2636.00
2019-05-21T07:44:40.830Z,2232.00
2019-05-21T07:45:40.825Z,2244.00
2019-05-21T07:46:40.824Z,2284.00
2019-05-21T07:47:40.817Z,2600.00
2019-05-21T07:48:40.808Z,2688.00
2019-05-21T07:49:40.803Z,2252.00
2019-05-21T07:50:40.797Z,2068.00
2019-05-21T07:51:40.790Z,1812.00
2019-05-21T07:52:40.790Z,2184.00
2019-05-21T07:53:40.785Z,1912.00
2019-05-21T07:54:40.776Z,1720.00
2019-05-21T07:55:40.771Z,1764.00
2019-05-21T07:56:40.765Z,1672.00
2019-05-21T07:57:40.759Z,1632.00
2019-05-21T07:58:40.754Z,1756.00
2019-05-21T07:59:40.750Z,1864.00
2019-05-21T08:00:40.739Z,1672.00
2019-05-21T08:01:40.736Z,1820.00
2019-05-21T08:02:40.831Z,2060.00
2019-05-21T08:03:40.727Z,2064.00
2019-05-21T08:04:40.728Z,1932.00
2019-05-21T08:05:40.721Z,1884.00
2019-05-21T08:06:40.718Z,2068.00
2019-05-21T08:07:40.712Z,1992.00
2019-05-21T08:08:40.702Z,1900.00
2019-05-21T08:09:40.699Z,1616.00
2019-05-21T08:10:40.726Z,1516.00
2019-05-21T08:11:40.682Z,1556.00
2019-05-21T08:12:40.685Z,1440.00
2019-05-21T08:13:40.680Z,1688.00
2019-05-21T08:14:40.668Z,1924.00
2019-05-21T08:15:40.662Z,2488.00
2019-05-21T08:16:40.660Z,2268.00
2019-05-21T08:17:40.658Z,2664.00
2019-05-21T08:18:40.655Z,3072.00
2019-05-21T08:19:40.652Z,2276.00
2019-05-21T08:20:40.642Z,2100.00
2019-05-21T08:21:40.635Z,2368.00
2019-05-21T08:22:40.638Z,2872.00
2019-05-21T08:23:40.632Z,3372.00
2019-05-21T08:24:40.621Z,2552.00
2019-05-21T08:25:40.683Z,2428.00
2019-05-21T08:26:40.610Z,2584.00
2019-05-21T08:27:40.645Z,3220.00
2019-05-21T08:28:40.598Z,2468.00
2019-05-21T08:29:40.589Z,2200.00
2019-05-21T08:30:40.589Z,1700.00
2019-05-21T08:31:40.583Z,1764.00
2019-05-21T08:32:40.577Z,1512.00
2019-05-21T08:33:40.571Z,1468.00
2019-05-21T08:34:40.565Z,1504.00
2019-05-21T08:35:40.570Z,1404.00
2019-05-21T08:36:40.559Z,1260.00
2019-05-21T08:37:40.553Z,1372.00
2019-05-21T08:38:40.550Z,1284.00
2019-05-21T08:39:40.541Z,1404.00
2019-05-21T08:40:40.531Z,1264.00
2019-05-21T08:41:40.526Z,1136.00
2019-05-21T08:42:40.529Z,1604.00
2019-05-21T08:43:40.516Z,1728.00
2019-05-21T08:44:40.525Z,2044.00
2019-05-21T08:45:40.511Z,2116.00
2019-05-21T08:46:40.502Z,2288.00
2019-05-21T08:47:40.495Z,1676.00
2019-05-21T08:48:40.493Z,1932.00
2019-05-21T08:49:44.073Z,1616.00
2019-05-21T08:50:40.486Z,1948.00
2019-05-21T08:51:40.474Z,2276.00
2019-05-21T08:52:40.465Z,1736.00
2019-05-21T08:53:40.462Z,2228.00
2019-05-21T08:54:40.456Z,2188.00
2019-05-21T08:55:40.448Z,1912.00
2019-05-21T08:56:40.449Z,1888.00
2019-05-21T08:57:40.444Z,3544.00
2019-05-21T08:58:40.440Z,3148.00
2019-05-21T08:59:40.435Z,2980.00
2019-05-21T09:00:40.424Z,3488.00
2019-05-21T09:01:40.421Z,3484.00
2019-05-21T09:02:40.418Z,2372.00
2019-05-21T09:03:40.412Z,2500.00
2019-05-21T09:04:46.300Z,2380.00
2019-05-21T09:05:40.396Z,2248.00
2019-05-21T09:06:40.390Z,2836.00
2019-05-21T09:07:40.384Z,2892.00
2019-05-21T09:08:40.383Z,2416.00
2019-05-21T09:09:50.200Z,3108.00
2019-05-21T09:10:40.372Z,3112.00
2019-05-21T09:11:40.370Z,2624.00
2019-05-21T09:12:40.356Z,2684.00
2019-05-21T09:13:40.393Z,2668.00
2019-05-21T09:14:40.349Z,2236.00
2019-05-21T09:15:40.368Z,1796.00
2019-05-21T09:16:40.346Z,1884.00
2019-05-21T09:17:40.338Z,2352.00
2019-05-21T09:18:40.329Z,2532.00
2019-05-21T09:19:40.328Z,2764.00
2019-05-21T09:20:40.325Z,3164.00
2019-05-21T09:21:40.315Z,2676.00
2019-05-21T09:22:40.309Z,3256.00
2019-05-21T09:23:40.304Z,2668.00
2019-05-21T09:24:40.294Z,2032.00
2019-05-21T09:25:40.290Z,2172.00
2019-05-21T09:26:40.284Z,2208.00
2019-05-21T09:27:40.276Z,1956.00
2019-05-21T09:28:40.276Z,2536.00
2019-05-21T09:29:40.275Z,2484.00
2019-05-21T09:30:40.274Z,2256.00
2019-05-21T09:31:40.262Z,2552.00
2019-05-21T09:32:40.288Z,2180.00
2019-05-21T09:33:40.249Z,2232.00
2019-05-21T09:34:48.874Z,2888.00
2019-05-21T09:35:40.276Z,3248.00
2019-05-21T09:36:40.234Z,2376.00
2019-05-21T09:37:40.232Z,3196.00
2019-05-21T09:38:40.222Z,2768.00
2019-05-21T09:39:40.214Z,2672.00
2019-05-21T09:40:40.218Z,2180.00
2019-05-21T09:41:40.210Z,2204.00
2019-05-21T09:42:40.205Z,2044.00
2019-05-21T09:43:40.199Z,2700.00
2019-05-21T09:44:40.190Z,2964.00
2019-05-21T09:45:40.187Z,3288.00
2019-05-21T09:46:40.178Z,2256.00
2019-05-21T09:47:40.195Z,1984.00
2019-05-21T09:48:40.173Z,2280.00
2019-05-21T09:49:40.165Z,2564.00
2019-05-21T09:50:40.173Z,2164.00
2019-05-21T09:51:40.155Z,2796.00
2019-05-21T09:52:40.150Z,2760.00
2019-05-21T09:53:40.144Z,2172.00
2019-05-21T09:54:40.142Z,2944.00
2019-05-21T09:55:40.134Z,2716.00
2019-05-21T09:56:40.127Z,2644.00
2019-05-21T09:57:40.123Z,3248.00
2019-05-21T09:58:40.119Z,2348.00
2019-05-21T09:59:40.111Z,2512.00
2019-05-21T10:00:40.111Z,2468.00
2019-05-21T10:01:40.106Z,2452.00
2019-05-21T10:02:40.104Z,2392.00
2019-05-21T10:03:40.094Z,2948.00
2019-05-21T10:04:40.086Z,2360.00
2019-05-21T10:05:40.097Z,2820.00
2019-05-21T10:06:40.085Z,2920.00
2019-05-21T10:07:40.777Z,2636.00
2019-05-21T10:08:40.064Z,2172.00
2019-05-21T10:09:40.061Z,2276.00
2019-05-21T10:10:40.056Z,2460.00
2019-05-21T10:11:40.049Z,2612.00
2019-05-21T10:12:40.049Z,2584.00
2019-05-21T10:13:40.072Z,2628.00
2019-05-21T10:14:40.045Z,3280.00
2019-05-21T10:15:40.038Z,3504.00
2019-05-21T10:16:40.028Z,2956.00
2019-05-21T10:17:40.019Z,2984.00
2019-05-21T10:18:40.011Z,3260.00
2019-05-21T10:19:40.004Z,3288.00
2019-05-21T10:20:40.008Z,2944.00
2019-05-21T10:21:40.006Z,3096.00
2019-05-21T10:22:39.993Z,3188.00
2019-05-21T10:23:39.998Z,2684.00
2019-05-21T10:24:39.985Z,2648.00
2019-05-21T10:25:40.021Z,2832.00
2019-05-21T10:26:39.978Z,2796.00
2019-05-21T10:27:39.982Z,3220.00
2019-05-21T10:28:39.990Z,2844.00
2019-05-21T10:29:39.959Z,2972.00
2019-05-21T10:30:39.960Z,2920.00
2019-05-21T10:31:39.963Z,3532.00
2019-05-21T10:32:39.946Z,3964.00
2019-05-21T10:33:39.941Z,3352.00
2019-05-21T10:34:39.934Z,2632.00
2019-05-21T10:35:39.928Z,2340.00
2019-05-21T10:36:39.932Z,2540.00
2019-05-21T10:37:54.056Z,2692.00
2019-05-21T10:38:39.915Z,2656.00
2019-05-21T10:39:39.910Z,2500.00
2019-05-21T10:40:39.919Z,2880.00
2019-05-21T10:41:39.897Z,2508.00
2019-05-21T10:42:39.892Z,2620.00
2019-05-21T10:43:39.886Z,2820.00
2019-05-21T10:44:39.887Z,2628.00
2019-05-21T10:45:39.881Z,3028.00
2019-05-21T10:46:39.879Z,2984.00
2019-05-21T10:47:39.864Z,3380.00
2019-05-21T10:48:39.866Z,3504.00
2019-05-21T10:49:39.862Z,2988.00
2019-05-21T10:50:39.857Z,2888.00
2019-05-21T10:51:39.850Z,3440.00
2019-05-21T10:52:39.843Z,3076.00
2019-05-21T10:53:39.837Z,2848.00
2019-05-21T10:54:39.837Z,2664.00
2019-05-21T10:55:39.834Z,2748.00
2019-05-21T10:56:48.144Z,3212.00
2019-05-21T10:57:39.821Z,3224.00
2019-05-21T10:58:39.812Z,3224.00
2019-05-21T10:59:39.805Z,2952.00
2019-05-21T11:00:39.805Z,2568.00
2019-05-21T11:01:39.799Z,2528.00
2019-05-21T11:02:39.795Z,2700.00
2019-05-21T11:03:39.788Z,2780.00
2019-05-21T11:04:39.779Z,2868.00
2019-05-21T11:05:39.774Z,2872.00
2019-05-21T11:06:39.773Z,3004.00
2019-05-21T11:07:39.772Z,2820.00
2019-05-21T11:08:39.768Z,2872.00
2019-05-21T11:09:39.764Z,2588.00
2019-05-21T11:10:39.756Z,2776.00
2019-05-21T11:11:39.752Z,3168.00
2019-05-21T11:12:39.750Z,2992.00
2019-05-21T11:13:39.744Z,3092.00
2019-05-21T11:14:39.743Z,2724.00
2019-05-21T11:15:39.733Z,2680.00
2019-05-21T11:16:39.722Z,2712.00
2019-05-21T11:17:49.931Z,2600.00
2019-05-21T11:18:39.715Z,2904.00
2019-05-21T11:19:39.707Z,3072.00
2019-05-21T11:20:39.708Z,2908.00
2019-05-21T11:21:39.702Z,2552.00
2019-05-21T11:22:39.713Z,3500.00
2019-05-21T11:23:39.710Z,3640.00
2019-05-21T11:24:39.690Z,3376.00
2019-05-21T11:25:39.687Z,3548.00
2019-05-21T11:26:39.683Z,3108.00
2019-05-21T11:27:39.679Z,3492.00
2019-05-21T11:28:39.670Z,3000.00
2019-05-21T11:29:39.664Z,3628.00
2019-05-21T11:30:39.657Z,2596.00
2019-05-21T11:31:55.367Z,3480.00
2019-05-21T11:32:39.656Z,2600.00
2019-05-21T11:33:39.651Z,2348.00
2019-05-21T11:34:39.642Z,2704.00
2019-05-21T11:35:39.637Z,3796.00
2019-05-21T11:36:39.643Z,2692.00
2019-05-21T11:37:39.628Z,2908.00
2019-05-21T11:38:40.498Z,2884.00
2019-05-21T11:39:39.616Z,2860.00
2019-05-21T11:40:39.617Z,2972.00
2019-05-21T11:41:39.610Z,2872.00
2019-05-21T11:42:39.613Z,2732.00
2019-05-21T11:43:39.597Z,3020.00
2019-05-21T11:44:39.598Z,3648.00
2019-05-21T11:45:39.591Z,3860.00
2019-05-21T11:46:39.586Z,4508.00
2019-05-21T11:47:39.578Z,2848.00
2019-05-21T11:48:39.582Z,2696.00
2019-05-21T11:49:39.568Z,2740.00
2019-05-21T11:50:39.565Z,3432.00
2019-05-21T11:51:39.561Z,2816.00
2019-05-21T11:52:39.568Z,2636.00
2019-05-21T11:53:39.556Z,3280.00
2019-05-21T11:54:39.547Z,3308.00
2019-05-21T11:55:39.549Z,3752.00
2019-05-21T11:56:39.535Z,3876.00
2019-05-21T11:57:39.528Z,4472.00
2019-05-21T11:58:40.138Z,3408.00
2019-05-21T11:59:39.526Z,2732.00
2019-05-21T12:00:39.534Z,2796.00
2019-05-21T12:01:39.527Z,2384.00
2019-05-21T12:02:39.511Z,3352.00
2019-05-21T12:03:39.506Z,3880.00
2019-05-21T12:04:39.506Z,3192.00
2019-05-21T12:05:39.498Z,3552.00
2019-05-21T12:06:39.496Z,2716.00
2019-05-21T12:07:39.490Z,2584.00
2019-05-21T12:08:55.168Z,2584.00
2019-05-21T12:09:39.478Z,2432.00
2019-05-21T12:10:39.470Z,2480.00
2019-05-21T12:11:39.466Z,2772.00
2019-05-21T12:12:39.465Z,3264.00
2019-05-21T12:13:39.463Z,3096.00
2019-05-21T12:14:39.457Z,2632.00
2019-05-21T12:15:39.447Z,2488.00
2019-05-21T12:16:39.456Z,2484.00
2019-05-21T12:17:39.444Z,2352.00
2019-05-21T12:18:39.445Z,2388.00
2019-05-21T12:19:39.438Z,2536.00
2019-05-21T12:20:39.426Z,2468.00
2019-05-21T12:21:39.424Z,2648.00
2019-05-21T12:22:39.420Z,2608.00
2019-05-21T12:23:39.422Z,2632.00
2019-05-21T12:24:39.416Z,2512.00
2019-05-21T12:25:39.415Z,2396.00
2019-05-21T12:26:39.438Z,2348.00
2019-05-21T12:27:39.516Z,2316.00
2019-05-21T12:28:39.390Z,2508.00
2019-05-21T12:29:39.385Z,2392.00
2019-05-21T12:30:39.385Z,2404.00
2019-05-21T12:31:39.379Z,2188.00